Terminal Aerodrome Forecast
Issued by NWS

Home | Current Version | Previous Version | Text Only | Print | Product List | Glossary On
Versions: 1 2 3 4 5 6 7 8 9 10 11 12 13 14
000
FTAK31 PANC 142329
TAFAHO
TAF
PAHO 142329Z 1500/1524 25008KT P6SM SCT070
      TEMPO 1500/1503 BKN018
     FM150600 VRB06KT P6SM BKN070
     FM151700 08012G20KT 6SM -RASN OVC025
     FM151900 08016G24KT 3SM -RA BR OVC015
     FM152200 09019G27KT 2SM -RA BR OVC012=

USA.gov is the U.S. government's official web portal to all federal, state and local government web resources and services.